Summerville, Georgia
Current Conditions -  °F | °C
As of 1:53 AM on Monday 24 Nov 2014 (Local Time) from KRMG Reporting Station
Overcast Overcast  
Wind Chill: 58°   Ceiling: 2900
Heat Index: 58°   Visibility: 10mi
Dew Point: 56°   Wind: 9mph
Humidity: 93%   Direction: 170°S
Pressure: 29.68"   Gusts: NA
Location:  34.48°N, 85.35°W
Report Text: KRMG 240653Z AUTO 17008KT 10SM OVC029 14/13 A2968 RMK AO2 SLP047 T01440133 $
Loading
Personal Weather Stations






























Interactive Weather Map New forecast layout! Learn more

10-Day Weather Forecast

Advertisements
Track Severe Weather on mobile